createdAt,value
2023-04-21T00:03:33.282Z,21.8
2023-04-21T00:09:26.881Z,23.6
2023-04-21T00:15:17.471Z,23.9
2023-04-21T00:21:09.109Z,23.2
2023-04-21T00:27:01.152Z,23.3
2023-04-21T00:32:36.944Z,23
2023-04-21T00:38:28.770Z,22.8
2023-04-21T00:44:05.523Z,22.4
2023-04-21T00:49:41.828Z,22.1
2023-04-21T00:55:18.098Z,21.8
2023-04-21T01:01:10.801Z,23.7
2023-04-21T01:06:49.131Z,23.9
2023-04-21T01:12:25.225Z,23.3
2023-04-21T01:18:17.203Z,23.3
2023-04-21T01:24:08.428Z,23
2023-04-21T01:29:59.660Z,22.7
2023-04-21T01:35:51.968Z,22.4
2023-04-21T01:41:11.857Z,22.1
2023-04-21T01:46:48.477Z,21.8
2023-04-21T01:52:25.485Z,23.8
2023-04-21T01:57:45.967Z,23.8
2023-04-21T02:03:38.876Z,23.3
2023-04-21T02:09:30.942Z,23.3
2023-04-21T02:15:22.126Z,23
2023-04-21T02:21:31.227Z,22.7
2023-04-21T02:27:23.042Z,22.4
2023-04-21T02:33:20.916Z,22
2023-04-21T02:38:57.315Z,22.1
2023-04-21T02:44:48.992Z,24.4
2023-04-21T02:50:41.057Z,23.4
2023-04-21T02:56:32.719Z,23.3
2023-04-21T03:02:25.113Z,23.3
2023-04-21T03:08:17.549Z,23
2023-04-21T03:14:09.231Z,22.6
2023-04-21T03:20:02.127Z,22.3
2023-04-21T03:25:53.738Z,21.9
2023-04-21T03:31:30.473Z,22.6
2023-04-21T03:37:23.381Z,25
2023-04-21T03:43:26.534Z,23.3
2023-04-21T03:49:20.549Z,23.3
2023-04-21T03:55:12.818Z,23.1
2023-04-21T04:01:03.276Z,22.8
2023-04-21T04:06:58.969Z,22.5
2023-04-21T04:12:35.242Z,22.1
2023-04-21T04:18:11.469Z,21.8
2023-04-21T04:24:02.924Z,23.1
2023-04-21T04:29:54.953Z,25.6
2023-04-21T04:35:33.853Z,23.2
2023-04-21T04:41:24.913Z,23.2
2023-04-21T04:47:19.368Z,23
2023-04-21T04:53:13.093Z,22.8
2023-04-21T04:59:04.036Z,22.4
2023-04-21T05:04:58.198Z,22.1
2023-04-21T05:10:33.654Z,21.8
2023-04-21T05:16:25.709Z,23.9
2023-04-21T05:22:20.473Z,23.4
2023-04-21T05:28:14.903Z,23.2
2023-04-21T05:34:06.990Z,23.1
2023-04-21T05:40:02.110Z,22.9
2023-04-21T05:45:53.930Z,22.6
2023-04-21T05:51:00.910Z,22.3
2023-04-21T05:56:37.406Z,21.9
2023-04-21T06:02:29.366Z,22.9
2023-04-21T06:08:09.126Z,25.6
2023-04-21T06:13:45.058Z,23.1
2023-04-21T06:19:36.973Z,23.1
2023-04-21T06:25:12.936Z,23
2023-04-21T06:30:49.296Z,22.8
2023-04-21T06:36:29.367Z,22.4
2023-04-21T06:42:20.932Z,22.1
2023-04-21T06:48:13.484Z,22.3
2023-04-21T06:53:48.783Z,24.9
2023-04-21T06:59:27.660Z,23.3
2023-04-21T07:05:21.635Z,23.3
2023-04-21T07:11:13.364Z,23.1
2023-04-21T07:17:04.540Z,22.8
2023-04-21T07:22:57.244Z,22.5
2023-04-21T07:28:48.381Z,22.1
2023-04-21T07:34:23.779Z,21.8
2023-04-21T07:40:16.472Z,23.7
2023-04-21T07:46:07.008Z,23.6
2023-04-21T07:51:58.455Z,23.2
2023-04-21T07:57:50.148Z,23.1
2023-04-21T08:03:27.489Z,22.9
2023-04-21T08:09:26.573Z,22.6
2023-04-21T08:15:19.230Z,22.3
2023-04-21T08:20:56.010Z,22.7
2023-04-21T08:26:35.807Z,25.4
2023-04-21T08:32:13.282Z,23.3
2023-04-21T08:38:43.729Z,23.3
2023-04-21T08:44:38.392Z,23.1
2023-04-21T08:50:33.517Z,22.8
2023-04-21T08:56:41.655Z,22.4
2023-04-21T09:02:33.386Z,22.1
2023-04-21T09:08:01.182Z,22.6
2023-04-21T09:13:54.655Z,25.3
2023-04-21T09:19:31.348Z,23.2
2023-04-21T09:25:23.715Z,23.3
2023-04-21T09:31:17.811Z,23.1
2023-04-21T09:37:31.043Z,22.8
2023-04-21T09:44:06.896Z,22.5
2023-04-21T09:50:36.122Z,22.2
2023-04-21T09:57:12.816Z,25.3
2023-04-21T10:02:50.063Z,23.3
2023-04-21T10:08:45.122Z,23.3
2023-04-21T10:14:38.481Z,23.1
2023-04-21T10:20:31.047Z,22.9
2023-04-21T10:26:23.050Z,22.6
2023-04-21T10:32:26.522Z,22.3
2023-04-21T10:38:18.996Z,23.3
2023-04-21T10:44:15.172Z,24
2023-04-21T10:50:06.882Z,23.1
2023-04-21T10:55:59.459Z,23.1
2023-04-21T11:01:50.472Z,23.1
2023-04-21T11:07:47.323Z,22.8
2023-04-21T11:13:40.804Z,22.6
2023-04-21T11:19:32.567Z,22.3
2023-04-21T11:25:23.215Z,22
2023-04-21T11:31:00.247Z,21.7
2023-04-21T11:36:51.786Z,21.4
2023-04-21T11:42:43.440Z,21.2
2023-04-21T11:48:36.323Z,20.9
2023-04-21T11:54:12.117Z,20.7
2023-04-21T12:00:04.825Z,20.4
2023-04-21T12:05:59.156Z,20.3
2023-04-21T12:11:35.104Z,20
2023-04-21T12:17:28.656Z,19.8
2023-04-21T12:23:21.223Z,19.6
2023-04-21T12:29:12.794Z,19.4
2023-04-21T12:35:08.129Z,19.3
2023-04-21T12:41:00.946Z,19.1
2023-04-21T12:46:52.808Z,18.9
2023-04-21T12:52:31.091Z,18.8
2023-04-21T12:58:33.236Z,18.8
2023-04-21T13:04:29.131Z,18.6
2023-04-21T13:10:05.640Z,18.4
2023-04-21T13:15:58.207Z,18.3
2023-04-21T13:21:50.130Z,18.3
2023-04-21T13:27:42.953Z,18.1
2023-04-21T13:33:35.284Z,18.1
2023-04-21T13:39:15.907Z,18
2023-04-21T13:45:10.135Z,17.9
2023-04-21T13:51:03.307Z,17.8
2023-04-21T13:56:56.743Z,17.7
2023-04-21T14:02:17.944Z,17.6
2023-04-21T14:08:16.550Z,17.6
2023-04-21T14:14:37.594Z,17.5
2023-04-21T14:20:30.913Z,17.4
2023-04-21T14:26:22.770Z,17.4
2023-04-21T14:32:00.061Z,17.3
2023-04-21T14:37:36.601Z,17.3
2023-04-21T14:43:15.780Z,17.2
2023-04-21T14:49:06.784Z,17.2
2023-04-21T14:54:58.139Z,17.1
2023-04-21T15:00:50.653Z,17.1
2023-04-21T15:17:48.639Z,16.9
2023-04-21T15:23:49.770Z,16.9
2023-04-21T15:29:25.680Z,16.9
2023-04-21T15:35:02.768Z,16.9
2023-04-21T15:40:46.561Z,16.8
2023-04-21T15:46:28.087Z,16.8
2023-04-21T15:52:21.159Z,16.8
2023-04-21T15:58:13.262Z,16.8
2023-04-21T16:04:08.022Z,16.8
2023-04-21T16:09:47.983Z,16.7
2023-04-21T16:16:13.297Z,16.7
2023-04-21T16:22:07.580Z,16.7
2023-04-21T16:28:01.014Z,16.7
2023-04-21T16:33:53.595Z,16.6
2023-04-21T16:39:47.925Z,16.6
2023-04-21T16:45:40.490Z,16.6
2023-04-21T16:51:33.664Z,16.6
2023-04-21T16:57:24.827Z,16.6
2023-04-21T17:03:17.329Z,16.6
2023-04-21T17:09:10.139Z,16.6
2023-04-21T17:15:01.364Z,16.6
2023-04-21T17:20:55.396Z,16.6
2023-04-21T17:27:04.109Z,16.6
2023-04-21T17:33:24.657Z,16.5
2023-04-21T17:39:30.508Z,16.5
2023-04-21T17:45:22.006Z,16.5
2023-04-21T17:51:13.755Z,16.5
2023-04-21T17:56:50.591Z,16.5
2023-04-21T18:02:42.347Z,16.5
2023-04-21T18:08:20.493Z,16.5
2023-04-21T18:13:58.137Z,16.4
2023-04-21T18:19:34.824Z,16.4
2023-04-21T18:25:11.506Z,16.4
2023-04-21T18:30:46.647Z,16.4
2023-04-21T18:36:22.363Z,16.4
2023-04-21T18:41:42.949Z,16.4
2023-04-21T18:47:04.944Z,16.4
2023-04-21T18:52:41.480Z,16.4
2023-04-21T18:58:17.621Z,16.4
2023-04-21T19:03:55.498Z,16.4
2023-04-21T19:09:47.768Z,16.4
2023-04-21T19:15:52.358Z,16.4
2023-04-21T19:21:44.935Z,16.4
2023-04-21T19:27:36.261Z,22.6
2023-04-21T19:33:28.173Z,25.5
2023-04-21T19:39:20.643Z,22.6
2023-04-21T19:45:12.279Z,22.8
2023-04-21T19:51:04.062Z,22.8
2023-04-21T19:57:13.573Z,22.9
2023-04-21T20:03:21.161Z,25.6
2023-04-21T20:09:14.363Z,22.7
2023-04-21T20:15:06.002Z,22.9
2023-04-21T20:20:57.931Z,22.9
2023-04-21T20:26:33.557Z,22.8
2023-04-21T20:32:27.814Z,23.7
2023-04-21T20:38:04.179Z,23.6
2023-04-21T20:43:52.852Z,22.9
2023-04-21T20:49:45.850Z,23
2023-04-21T20:55:36.922Z,23
2023-04-21T21:01:30.637Z,22.8
2023-04-21T21:07:24.485Z,22.9
2023-04-21T21:13:19.015Z,25.6
2023-04-21T21:18:55.178Z,22.9
2023-04-21T21:24:46.858Z,23.1
2023-04-21T21:30:37.629Z,23.1
2023-04-21T21:36:29.631Z,22.9
2023-04-21T21:42:21.732Z,22.7
2023-04-21T21:48:17.774Z,23.8
2023-04-21T21:53:54.157Z,23.6
2023-04-21T21:59:46.004Z,23.1
2023-04-21T22:05:43.266Z,23.3
2023-04-21T22:11:36.621Z,23.1
2023-04-21T22:17:40.355Z,22.9
2023-04-21T22:23:31.755Z,22.6
2023-04-21T22:29:07.206Z,24.2
2023-04-21T22:34:59.733Z,23.4
2023-04-21T22:40:50.213Z,23.2
2023-04-21T22:46:41.681Z,23.3
2023-04-21T22:52:34.281Z,23.1
2023-04-21T22:58:26.248Z,22.9
2023-04-21T23:04:19.928Z,22.6
2023-04-21T23:09:56.818Z,24.1
2023-04-21T23:15:48.268Z,23.6
2023-04-21T23:21:40.682Z,23.2
2023-04-21T23:27:32.454Z,23.3
2023-04-21T23:33:24.482Z,23.2
2023-04-21T23:39:16.083Z,22.9
2023-04-21T23:45:07.944Z,22.6
2023-04-21T23:50:45.175Z,23.8
2023-04-21T23:56:37.710Z,24.1
